createdAt,value
2019-03-13T00:00:53.162Z,55.70
2019-03-13T00:03:20.694Z,55.60
2019-03-13T00:05:48.167Z,55.70
2019-03-13T00:08:15.631Z,55.70
2019-03-13T00:10:43.134Z,55.60
2019-03-13T00:13:10.642Z,55.50
2019-03-13T00:15:38.114Z,55.40
2019-03-13T00:18:05.621Z,55.40
2019-03-13T00:20:33.125Z,55.60
2019-03-13T00:23:00.600Z,55.60
2019-03-13T00:25:28.065Z,55.70
2019-03-13T00:27:55.535Z,55.80
2019-03-13T00:30:23.006Z,55.70
2019-03-13T00:32:50.471Z,55.70
2019-03-13T00:35:17.949Z,55.90
2019-03-13T00:37:45.508Z,56.00
2019-03-13T00:40:12.968Z,55.90
2019-03-13T00:42:40.445Z,55.90
2019-03-13T00:45:08.686Z,55.90
2019-03-13T00:47:36.156Z,56.30
2019-03-13T00:50:04.298Z,55.90
2019-03-13T00:52:31.770Z,55.70
2019-03-13T00:54:59.245Z,55.70
2019-03-13T00:57:26.723Z,55.80
2019-03-13T00:59:54.200Z,55.70
2019-03-13T01:02:29.045Z,55.90
2019-03-13T01:04:58.153Z,56.00
2019-03-13T01:07:25.627Z,56.00
2019-03-13T01:09:53.094Z,55.90
2019-03-13T01:12:20.573Z,56.00
2019-03-13T01:14:48.050Z,55.90
2019-03-13T01:17:15.519Z,56.10
2019-03-13T01:19:43.070Z,56.10
2019-03-13T01:22:10.535Z,56.00
2019-03-13T01:24:37.998Z,55.90
2019-03-13T01:27:05.470Z,56.00
2019-03-13T01:29:32.955Z,55.90
2019-03-13T01:32:11.061Z,56.50
2019-03-13T01:34:46.131Z,55.90
2019-03-13T01:37:13.619Z,55.90
2019-03-13T01:39:41.094Z,55.90
2019-03-13T01:42:08.573Z,55.90
2019-03-13T01:44:36.059Z,55.90
2019-03-13T01:47:03.537Z,55.80
2019-03-13T01:49:31.010Z,55.90
2019-03-13T01:51:58.485Z,55.80
2019-03-13T01:54:25.956Z,55.90
2019-03-13T01:56:53.487Z,55.90
2019-03-13T01:59:20.974Z,56.00
2019-03-13T02:01:48.458Z,55.80
2019-03-13T02:04:15.941Z,55.80
2019-03-13T02:06:43.426Z,55.70
2019-03-13T02:09:10.897Z,55.70
2019-03-13T02:11:38.370Z,55.50
2019-03-13T02:14:05.847Z,55.60
2019-03-13T02:16:33.351Z,55.60
2019-03-13T02:19:00.827Z,55.50
2019-03-13T02:21:28.298Z,55.40
2019-03-13T02:23:55.769Z,55.40
2019-03-13T02:26:23.234Z,55.50
2019-03-13T02:28:50.712Z,55.40
2019-03-13T02:31:18.173Z,55.40
2019-03-13T02:33:45.656Z,55.40
2019-03-13T02:36:13.118Z,55.40
2019-03-13T02:38:40.603Z,55.40
2019-03-13T02:41:08.321Z,55.40
2019-03-13T02:43:35.798Z,55.40
2019-03-13T02:46:03.265Z,55.40
2019-03-13T02:48:30.743Z,55.30
2019-03-13T02:50:58.216Z,54.70
2019-03-13T02:53:25.686Z,55.20
2019-03-13T02:55:53.154Z,55.20
2019-03-13T02:58:20.632Z,55.20
2019-03-13T03:01:05.060Z,55.10
2019-03-13T03:03:34.170Z,55.30
2019-03-13T03:06:01.626Z,55.20
2019-03-13T03:08:29.123Z,55.20
2019-03-13T19:28:10.017Z,55.40
2019-03-13T19:30:50.526Z,55.20
2019-03-13T19:33:18.010Z,55.30
2019-03-13T19:35:45.503Z,55.30
2019-03-13T19:38:14.270Z,55.10
2019-03-13T19:40:41.741Z,55.10
2019-03-13T19:43:09.223Z,55.10
2019-03-13T19:45:38.339Z,55.10
2019-03-13T19:48:05.809Z,55.10
2019-03-13T19:50:33.293Z,55.10
2019-03-13T19:53:00.763Z,55.10
2019-03-13T19:55:28.243Z,55.00
2019-03-13T19:57:55.710Z,55.10
2019-03-13T20:00:26.366Z,55.00
2019-03-13T20:03:00.113Z,54.90
2019-03-13T20:05:24.348Z,55.10
2019-03-13T20:07:51.982Z,55.30
2019-03-13T20:10:23.583Z,55.30
2019-03-13T20:12:51.111Z,55.10
2019-03-13T20:15:19.675Z,55.00
2019-03-13T20:17:47.131Z,55.00
2019-03-13T20:20:15.578Z,54.90
2019-03-13T20:22:43.044Z,54.80
2019-03-13T20:25:11.511Z,54.80
2019-03-13T20:27:38.973Z,54.90
2019-03-13T20:30:16.488Z,54.80
2019-03-13T20:32:43.983Z,55.00
2019-03-13T20:35:11.622Z,54.50
2019-03-13T20:37:39.094Z,54.90
2019-03-13T20:40:08.427Z,55.00
2019-03-13T20:42:35.903Z,55.00
2019-03-13T20:45:04.583Z,55.10
2019-03-13T20:47:32.306Z,55.10
2019-03-13T20:49:59.763Z,55.30
2019-03-13T20:52:27.234Z,55.40
2019-03-13T20:54:54.706Z,55.30
2019-03-13T20:57:22.194Z,55.10
2019-03-13T20:59:49.715Z,55.20
2019-03-13T21:02:17.233Z,55.00
2019-03-13T21:04:44.812Z,54.90
2019-03-13T21:07:12.314Z,54.80
2019-03-13T21:09:39.771Z,54.80
2019-03-13T21:12:07.254Z,55.40
2019-03-13T21:14:35.920Z,54.80
2019-03-13T21:17:03.682Z,54.90
2019-03-13T21:19:31.162Z,54.70
2019-03-13T21:21:58.688Z,54.70
2019-03-13T21:24:26.406Z,54.70
2019-03-13T21:26:53.890Z,54.80
2019-03-13T21:29:21.372Z,54.80
2019-03-13T21:31:48.962Z,54.80
2019-03-13T21:34:16.414Z,54.90
2019-03-13T21:36:43.881Z,55.00
2019-03-13T21:39:11.383Z,55.10
2019-03-13T21:41:38.830Z,55.10
2019-03-13T21:44:06.321Z,55.20
2019-03-13T21:46:33.794Z,55.20
2019-03-13T21:49:01.288Z,55.10
2019-03-13T21:51:28.766Z,55.10
2019-03-13T21:53:56.285Z,55.20
2019-03-13T21:56:23.743Z,55.20
2019-03-13T21:58:51.208Z,55.20
2019-03-13T22:01:20.177Z,55.20
2019-03-13T22:03:48.096Z,55.20
2019-03-13T22:06:27.624Z,55.30
2019-03-13T22:08:44.820Z,55.20
2019-03-13T22:11:12.345Z,55.30
2019-03-13T22:13:39.811Z,55.20
2019-03-13T22:16:07.270Z,55.20
2019-03-13T22:18:34.754Z,55.10
2019-03-13T22:21:02.216Z,55.10
2019-03-13T22:23:29.694Z,55.70
2019-03-13T22:25:57.176Z,55.20
2019-03-13T22:28:24.705Z,55.30
2019-03-13T22:30:52.162Z,55.20
2019-03-13T22:33:19.630Z,55.00
2019-03-13T22:35:47.099Z,55.00
2019-03-13T22:38:14.576Z,54.90
2019-03-13T22:40:42.038Z,54.80
2019-03-13T22:43:09.510Z,54.80
2019-03-13T22:45:36.993Z,54.80
2019-03-13T22:48:04.454Z,54.80
2019-03-13T22:50:31.928Z,54.80
2019-03-13T22:52:59.398Z,54.80
2019-03-13T22:55:26.871Z,54.80
2019-03-13T22:57:54.333Z,54.80
2019-03-13T23:00:25.201Z,54.80
2019-03-13T23:02:52.667Z,54.80
2019-03-13T23:05:20.717Z,54.90
2019-03-13T23:07:48.185Z,54.90
2019-03-13T23:10:23.474Z,54.90
2019-03-13T23:12:51.004Z,54.90
2019-03-13T23:15:18.480Z,54.80
2019-03-13T23:17:45.937Z,54.80
2019-03-13T23:20:13.420Z,54.80
2019-03-13T23:22:40.888Z,54.80
2019-03-13T23:25:08.363Z,54.70
2019-03-13T23:27:35.829Z,54.60
2019-03-13T23:30:04.503Z,54.50
2019-03-13T23:32:32.001Z,54.50
2019-03-13T23:34:59.543Z,54.50
2019-03-13T23:37:27.001Z,54.50
2019-03-13T23:39:54.472Z,54.40
2019-03-13T23:42:22.016Z,54.40
2019-03-13T23:44:49.472Z,54.40
2019-03-13T23:47:16.948Z,54.40
2019-03-13T23:49:44.411Z,54.50
2019-03-13T23:52:11.878Z,54.60
2019-03-13T23:54:39.348Z,54.60
2019-03-13T23:57:07.116Z,54.80
2019-03-13T23:59:34.583Z,54.50
